Terminal Aerodrome Forecast
Issued by NWS Topeka, KS

Current Version | Previous Version | Text Only | Print | Product List | Glossary On
Versions: 1 2 3 4 5 6 7 8 9 10 11 12 13
550
FTUS43 KTOP 230520
TAFTOP
TAF
KTOP 230520Z 2306/2406 03004KT P6SM BKN080
     FM231400 01005KT P6SM SCT120=

USA.gov is the U.S. government's official web portal to all federal, state and local government web resources and services.